createdAt,value
2019-04-05T00:03:25.781Z,32.30
2019-04-05T00:08:27.338Z,32.97
2019-04-05T00:13:28.895Z,33.90
2019-04-05T00:18:30.531Z,33.30
2019-04-05T00:23:32.152Z,31.63
2019-04-05T00:28:33.859Z,32.80
2019-04-05T00:33:35.432Z,33.23
2019-04-05T00:38:36.972Z,30.90
2019-04-05T00:43:38.551Z,29.87
2019-04-05T00:48:40.207Z,33.00
2019-04-05T00:53:41.787Z,31.57
2019-04-05T00:58:43.365Z,29.73
2019-04-05T01:03:44.975Z,31.87
2019-04-05T01:08:46.866Z,32.03
2019-04-05T01:13:49.061Z,31.80
2019-04-05T01:18:50.653Z,32.00
2019-04-05T01:23:53.100Z,31.23
2019-04-05T01:28:54.838Z,29.33
2019-04-05T01:33:56.666Z,29.80
2019-04-05T01:38:58.314Z,29.37
2019-04-05T01:43:59.910Z,30.10
2019-04-05T01:49:01.585Z,31.17
2019-04-05T01:54:03.364Z,31.97
2019-04-05T01:59:05.067Z,32.80
2019-04-05T02:04:06.714Z,32.37
2019-04-05T02:09:10.323Z,31.30
2019-04-05T02:14:12.109Z,33.07
2019-04-05T02:19:13.784Z,32.93
2019-04-05T02:24:15.455Z,29.93
2019-04-05T02:29:17.230Z,30.93
2019-04-05T02:34:18.781Z,30.50
2019-04-05T02:39:20.381Z,29.90
2019-04-05T02:44:22.372Z,30.10
2019-04-05T02:49:25.879Z,29.13
2019-04-05T02:54:27.988Z,31.17
2019-04-05T02:59:30.609Z,30.70
2019-04-05T03:04:32.636Z,30.97
2019-04-05T03:09:34.489Z,30.17
2019-04-05T03:14:36.591Z,28.80
2019-04-05T03:19:38.347Z,31.40
2019-04-05T03:24:41.178Z,29.87
2019-04-05T03:29:43.023Z,30.17
2019-04-05T03:34:44.743Z,28.27
2019-04-05T03:39:46.425Z,32.57
2019-04-05T03:44:48.110Z,29.17
2019-04-05T03:49:49.854Z,28.43
2019-04-05T03:54:51.660Z,28.83
2019-04-05T03:59:53.345Z,28.63
2019-04-05T04:04:55.081Z,29.03
2019-04-05T04:09:56.639Z,30.93
2019-04-05T04:15:13.743Z,29.57
2019-04-05T04:20:33.788Z,31.80
2019-04-05T04:25:36.269Z,30.13
2019-04-05T04:30:37.909Z,29.47
2019-04-05T04:35:40.091Z,30.10
2019-04-05T04:40:41.894Z,31.80
2019-04-05T04:45:43.567Z,31.13
2019-04-05T04:50:45.907Z,31.93
2019-04-05T04:55:47.567Z,30.90
2019-04-05T05:00:49.326Z,33.00
2019-04-05T05:05:51.087Z,32.67
2019-04-05T05:10:52.782Z,32.87
2019-04-05T05:15:54.437Z,32.97
2019-04-05T05:20:56.243Z,33.43
2019-04-05T05:25:57.898Z,32.50
2019-04-05T05:30:59.592Z,32.10
2019-04-05T05:36:01.464Z,32.10
2019-04-05T05:41:03.133Z,33.87
2019-04-05T05:46:04.805Z,36.63
2019-04-05T05:51:06.458Z,35.73
2019-04-05T05:56:08.031Z,36.37
2019-04-05T06:01:09.642Z,32.97
2019-04-05T06:06:11.256Z,34.50
2019-04-05T06:11:12.936Z,32.87
2019-04-05T06:16:14.804Z,34.83
2019-04-05T06:21:16.500Z,33.20
2019-04-05T06:26:18.190Z,34.67
2019-04-05T06:31:19.740Z,33.30
2019-04-05T06:36:21.275Z,32.33
2019-04-05T06:41:23.043Z,31.77
2019-04-05T06:46:24.730Z,30.73
2019-04-05T06:51:26.448Z,29.67
2019-04-05T06:56:28.092Z,30.70
2019-04-05T07:01:29.794Z,28.80
2019-04-05T07:06:31.585Z,30.27
2019-04-05T07:11:33.155Z,27.60
2019-04-05T07:16:34.838Z,28.30
2019-04-05T07:21:36.573Z,28.70
2019-04-05T07:26:38.150Z,29.60
2019-04-05T07:31:39.871Z,28.10
2019-04-05T07:36:41.694Z,29.30
2019-04-05T07:41:43.272Z,29.20
2019-04-05T07:46:46.511Z,28.03
2019-04-05T07:51:48.531Z,28.53
2019-04-05T07:56:50.266Z,29.33
2019-04-05T08:01:51.987Z,29.27
2019-04-05T08:06:55.082Z,29.93
2019-04-05T08:11:57.427Z,29.93
2019-04-05T08:16:59.167Z,27.93
2019-04-05T08:22:00.879Z,29.17
2019-04-05T08:27:02.802Z,30.20
2019-04-05T08:32:14.001Z,30.07
2019-04-05T08:37:07.870Z,28.27
2019-04-05T08:42:10.963Z,25.37
2019-04-05T08:47:12.839Z,27.60
2019-04-05T08:52:14.435Z,27.67
2019-04-05T08:57:15.988Z,29.80
2019-04-05T09:02:17.551Z,26.13
2019-04-05T09:07:19.099Z,26.37
2019-04-05T09:12:20.688Z,25.53
2019-04-05T09:17:22.271Z,26.87
2019-04-05T09:22:24.098Z,28.17
2019-04-05T09:27:25.704Z,25.57
2019-04-05T09:32:27.258Z,25.03
2019-04-05T09:37:28.930Z,25.57
2019-04-05T09:42:30.465Z,25.80
2019-04-05T09:47:32.020Z,23.70
2019-04-05T09:52:33.679Z,26.20
2019-04-05T09:57:35.281Z,26.63
2019-04-05T10:02:36.873Z,26.33
2019-04-05T10:07:48.727Z,25.07
2019-04-05T10:12:41.870Z,25.27
2019-04-05T10:17:43.436Z,25.97
2019-04-05T10:22:44.977Z,26.13
2019-04-05T10:27:46.575Z,25.00
2019-04-05T10:32:48.130Z,25.00
2019-04-05T10:37:49.650Z,26.33
2019-04-05T10:42:51.208Z,25.73
2019-04-05T10:47:52.804Z,25.37
2019-04-05T10:52:54.436Z,26.03
2019-04-05T10:57:56.093Z,24.82
2019-04-05T11:02:57.743Z,26.95
2019-04-05T11:07:59.405Z,25.92
2019-04-05T11:13:01.013Z,24.82
2019-04-05T11:18:04.607Z,24.77
2019-04-05T11:23:06.334Z,24.82
2019-04-05T11:28:07.890Z,24.82
2019-04-05T11:33:09.629Z,24.20
2019-04-05T11:38:12.837Z,24.20
2019-04-05T11:43:15.041Z,26.77
2019-04-05T11:48:16.676Z,25.95
2019-04-05T11:53:18.372Z,25.12
2019-04-05T11:58:19.912Z,24.98
2019-04-05T12:03:21.749Z,24.23
2019-04-05T12:08:23.283Z,24.37
2019-04-05T12:13:24.826Z,23.98
2019-04-05T12:18:26.405Z,23.70
2019-04-05T12:23:27.944Z,25.10
2019-04-05T12:28:29.568Z,26.45
2019-04-05T12:33:31.110Z,26.50
2019-04-05T12:38:33.410Z,26.37
2019-04-05T12:43:35.117Z,25.77
2019-04-05T12:48:36.663Z,25.82
2019-04-05T12:53:38.210Z,25.52
2019-04-05T12:58:39.749Z,24.67
2019-04-05T13:03:41.319Z,23.38
2019-04-05T13:08:42.927Z,25.90
2019-04-05T13:13:44.637Z,25.40
2019-04-05T13:18:46.173Z,25.88
2019-04-05T13:23:47.709Z,26.30
2019-04-05T13:28:49.331Z,25.92
2019-04-05T13:33:54.351Z,24.63
2019-04-05T13:38:59.456Z,25.25
2019-04-05T13:44:01.592Z,25.52
2019-04-05T13:49:03.014Z,26.45
2019-04-05T13:54:04.646Z,27.17
2019-04-05T13:59:06.203Z,27.22
2019-04-05T14:04:07.757Z,28.75
2019-04-05T14:09:10.389Z,26.70
2019-04-05T14:14:12.657Z,26.37
2019-04-05T14:19:14.256Z,28.35
2019-04-05T14:24:15.902Z,28.42
2019-04-05T14:29:17.562Z,30.00
2019-04-05T14:34:19.253Z,28.38
2019-04-05T14:39:20.991Z,29.00
2019-04-05T14:44:22.537Z,27.30
2019-04-05T14:49:24.185Z,26.52
2019-04-05T14:54:25.729Z,28.00
2019-04-05T14:59:27.266Z,26.75
2019-04-05T15:04:28.807Z,27.93
2019-04-05T15:09:30.346Z,28.20
2019-04-05T15:14:32.585Z,28.23
2019-04-05T15:19:34.312Z,27.25
2019-04-05T15:24:36.095Z,28.10
2019-04-05T15:29:37.638Z,27.02
2019-04-05T15:34:39.291Z,27.07
2019-04-05T15:39:40.829Z,26.60
2019-04-05T15:44:42.377Z,27.90
2019-04-05T15:49:43.937Z,27.25
2019-04-05T15:54:46.603Z,28.62
2019-04-05T15:59:48.211Z,29.42
2019-04-05T16:04:49.752Z,27.32
2019-04-05T16:09:51.527Z,27.70
2019-04-05T16:14:53.095Z,27.40
2019-04-05T16:19:54.730Z,27.48
2019-04-05T16:24:56.331Z,27.00
2019-04-05T16:29:58.343Z,28.57
2019-04-05T16:35:00.034Z,27.42
2019-04-05T16:40:01.779Z,28.02
2019-04-05T16:45:04.868Z,27.45
2019-04-05T16:50:07.249Z,28.50
2019-04-05T16:55:09.745Z,29.37
2019-04-05T17:00:12.066Z,28.57
2019-04-05T17:05:13.744Z,27.82
2019-04-05T17:10:15.388Z,28.98
2019-04-05T17:15:17.051Z,27.93
2019-04-05T17:20:18.617Z,27.52
2019-04-05T17:25:20.253Z,28.50
2019-04-05T17:30:21.947Z,27.02
2019-04-05T17:35:23.865Z,27.00
2019-04-05T17:40:25.917Z,27.27
2019-04-05T17:45:27.785Z,28.30
2019-04-05T17:50:32.367Z,28.63
2019-04-05T17:55:34.019Z,28.15
2019-04-05T18:00:35.863Z,27.17
2019-04-05T18:05:37.434Z,29.40
2019-04-05T18:10:38.988Z,26.03
2019-04-05T18:15:51.851Z,28.87
2019-04-05T18:20:44.019Z,27.87
2019-04-05T18:25:45.564Z,27.23
2019-04-05T18:30:47.128Z,28.00
2019-04-05T18:35:48.673Z,28.00
2019-04-05T18:40:50.619Z,28.70
2019-04-05T18:45:52.147Z,28.87
2019-04-05T18:50:53.695Z,28.17
2019-04-05T18:55:55.224Z,29.03
2019-04-05T19:00:56.771Z,28.87
2019-04-05T19:05:58.332Z,28.27
2019-04-05T19:11:00.014Z,30.47
2019-04-05T19:16:01.691Z,28.03
2019-04-05T19:21:03.240Z,30.50
2019-04-05T19:26:04.907Z,31.63
2019-04-05T19:51:20.567Z,31.70
2019-04-05T19:56:22.120Z,33.33
2019-04-05T20:01:23.747Z,31.53
2019-04-05T20:06:25.424Z,31.23
2019-04-05T20:11:26.987Z,32.10
2019-04-05T20:16:28.762Z,32.20
2019-04-05T20:21:30.447Z,29.90
2019-04-05T20:26:31.999Z,31.17
2019-04-05T20:31:33.537Z,31.53
2019-04-05T20:36:35.221Z,32.43
2019-04-05T20:41:36.824Z,32.63
2019-04-05T20:46:39.316Z,36.13
2019-04-05T20:51:40.880Z,31.13
2019-04-05T20:56:42.427Z,29.03
2019-04-05T21:01:43.975Z,29.40
2019-04-05T21:06:45.566Z,29.83
2019-04-05T21:11:47.237Z,30.17
2019-04-05T21:16:48.919Z,27.67
2019-04-05T21:21:50.523Z,29.33
2019-04-05T21:26:52.089Z,29.60
2019-04-05T21:31:53.682Z,28.40
2019-04-05T21:36:55.371Z,30.37
2019-04-05T21:41:57.138Z,28.10
2019-04-05T21:46:58.816Z,28.07
2019-04-05T21:52:00.521Z,27.40
2019-04-05T21:57:02.209Z,27.33
2019-04-05T22:02:04.247Z,28.93
2019-04-05T22:07:06.010Z,29.43
2019-04-05T22:12:07.849Z,31.60
2019-04-05T22:17:09.549Z,33.23
2019-04-05T22:22:11.403Z,35.67
2019-04-05T22:27:13.100Z,36.33
2019-04-05T22:32:14.692Z,43.57
2019-04-05T22:37:16.447Z,43.73
2019-04-05T22:42:18.126Z,42.10
2019-04-05T22:47:19.885Z,43.57
2019-04-05T22:52:21.635Z,38.47
2019-04-05T22:57:23.357Z,44.10
2019-04-05T23:02:25.128Z,41.57
2019-04-05T23:07:26.829Z,39.80
2019-04-05T23:12:28.578Z,39.87
2019-04-05T23:17:30.278Z,39.33
2019-04-05T23:22:32.028Z,40.93
2019-04-05T23:27:33.797Z,41.63
2019-04-05T23:32:35.561Z,41.63
2019-04-05T23:37:37.301Z,40.53
2019-04-05T23:42:38.989Z,36.53
2019-04-05T23:47:40.727Z,35.23
2019-04-05T23:52:42.339Z,35.97
2019-04-05T23:57:44.103Z,34.90
